sensor_id;sensor_type;location;lat;lon;timestamp;pressure;altitude;pressure_sealevel;temperature;humidity
74794;BME280;63320;50.768;6.724;2024-02-14T00:00:49;100280.09;;;8.19;nan
74794;BME280;63320;50.768;6.724;2024-02-14T00:03:14;100265.09;;;8.23;nan
74794;BME280;63320;50.768;6.724;2024-02-14T00:05:40;100260.84;;;8.20;nan
74794;BME280;63320;50.768;6.724;2024-02-14T00:08:06;100271.06;;;8.26;nan
74794;BME280;63320;50.768;6.724;2024-02-14T00:10:32;100273.00;;;8.21;nan
74794;BME280;63320;50.768;6.724;2024-02-14T00:12:57;100273.19;;;8.17;nan
74794;BME280;63320;50.768;6.724;2024-02-14T00:15:24;100267.03;;;8.18;nan
74794;BME280;63320;50.768;6.724;2024-02-14T00:17:49;100270.47;;;8.20;nan
74794;BME280;63320;50.768;6.724;2024-02-14T00:20:14;100272.34;;;8.16;nan
74794;BME280;63320;50.768;6.724;2024-02-14T00:22:40;100273.25;;;8.15;nan
74794;BME280;63320;50.768;6.724;2024-02-14T00:25:06;100262.59;;;8.20;nan
74794;BME280;63320;50.768;6.724;2024-02-14T00:27:31;100268.75;;;8.19;nan
74794;BME280;63320;50.768;6.724;2024-02-14T00:29:57;100268.06;;;8.14;nan
74794;BME280;63320;50.768;6.724;2024-02-14T00:32:24;100272.25;;;8.18;nan
74794;BME280;63320;50.768;6.724;2024-02-14T00:34:49;100269.66;;;8.18;nan
74794;BME280;63320;50.768;6.724;2024-02-14T00:37:14;100275.81;;;8.17;nan
74794;BME280;63320;50.768;6.724;2024-02-14T00:39:40;100282.03;;;8.14;nan
74794;BME280;63320;50.768;6.724;2024-02-14T00:42:05;100273.31;;;8.14;nan
74794;BME280;63320;50.768;6.724;2024-02-14T00:44:31;100282.03;;;8.14;nan
74794;BME280;63320;50.768;6.724;2024-02-14T00:46:56;100273.25;;;8.15;nan
74794;BME280;63320;50.768;6.724;2024-02-14T00:49:23;100270.56;;;8.17;nan
74794;BME280;63320;50.768;6.724;2024-02-14T00:51:48;100260.06;;;8.18;nan
74794;BME280;63320;50.768;6.724;2024-02-14T00:54:14;100260.84;;;8.20;nan
74794;BME280;63320;50.768;6.724;2024-02-14T00:56:39;100245.97;;;8.21;nan
74794;BME280;63320;50.768;6.724;2024-02-14T00:59:05;100245.19;;;8.19;nan
74794;BME280;63320;50.768;6.724;2024-02-14T01:01:30;100240.56;;;8.25;nan
74794;BME280;63320;50.768;6.724;2024-02-14T01:03:55;100234.56;;;8.22;nan
74794;BME280;63320;50.768;6.724;2024-02-14T01:06:22;100234.63;;;8.20;nan
74794;BME280;63320;50.768;6.724;2024-02-14T01:08:47;100230.34;;;8.18;nan
74794;BME280;63320;50.768;6.724;2024-02-14T01:11:13;100226.84;;;8.19;nan
74794;BME280;63320;50.768;6.724;2024-02-14T01:13:38;100227.03;;;8.14;nan
74794;BME280;63320;50.768;6.724;2024-02-14T01:16:04;100223.59;;;8.12;nan
74794;BME280;63320;50.768;6.724;2024-02-14T01:18:30;100224.59;;;8.08;nan
74794;BME280;63320;50.768;6.724;2024-02-14T01:20:55;100228.31;;;8.02;nan
74794;BME280;63320;50.768;6.724;2024-02-14T01:23:22;100223.16;;;8.01;nan
74794;BME280;63320;50.768;6.724;2024-02-14T01:25:47;100219.59;;;8.02;nan
74794;BME280;63320;50.768;6.724;2024-02-14T01:28:13;100218.16;;;7.95;nan
74794;BME280;63320;50.768;6.724;2024-02-14T01:30:38;100213.69;;;7.97;nan
74794;BME280;63320;50.768;6.724;2024-02-14T01:33:04;100212.97;;;7.93;nan
74794;BME280;63320;50.768;6.724;2024-02-14T01:35:29;100225.94;;;7.96;nan
74794;BME280;63320;50.768;6.724;2024-02-14T01:37:55;100215.59;;;7.93;nan
74794;BME280;63320;50.768;6.724;2024-02-14T01:40:22;100236.53;;;7.93;nan
74794;BME280;63320;50.768;6.724;2024-02-14T01:42:47;100244.94;;;8.01;nan
74794;BME280;63320;50.768;6.724;2024-02-14T01:45:12;100240.53;;;8.03;nan
74794;BME280;63320;50.768;6.724;2024-02-14T01:47:38;100242.22;;;8.04;nan
74794;BME280;63320;50.768;6.724;2024-02-14T01:50:05;100227.38;;;8.05;nan
74794;BME280;63320;50.768;6.724;2024-02-14T01:52:30;100232.19;;;8.16;nan
74794;BME280;63320;50.768;6.724;2024-02-14T01:54:56;100220.06;;;8.13;nan
74794;BME280;63320;50.768;6.724;2024-02-14T01:57:23;100224.59;;;8.08;nan
74794;BME280;63320;50.768;6.724;2024-02-14T01:59:51;100230.50;;;8.15;nan
74794;BME280;63320;50.768;6.724;2024-02-14T02:02:17;100226.09;;;8.15;nan
74794;BME280;63320;50.768;6.724;2024-02-14T02:04:42;100225.25;;;8.15;nan
74794;BME280;63320;50.768;6.724;2024-02-14T02:07:08;100220.88;;;8.15;nan
74794;BME280;63320;50.768;6.724;2024-02-14T02:09:33;100217.44;;;8.13;nan
74794;BME280;63320;50.768;6.724;2024-02-14T02:11:58;100219.28;;;8.11;nan
74794;BME280;63320;50.768;6.724;2024-02-14T02:14:25;100227.44;;;8.03;nan
74794;BME280;63320;50.768;6.724;2024-02-14T02:16:50;100220.34;;;8.05;nan
74794;BME280;63320;50.768;6.724;2024-02-14T02:19:16;100213.34;;;8.06;nan
74794;BME280;63320;50.768;6.724;2024-02-14T02:21:42;100214.28;;;8.05;nan
74794;BME280;63320;50.768;6.724;2024-02-14T02:24:08;100215.22;;;8.02;nan
74794;BME280;63320;50.768;6.724;2024-02-14T02:26:34;100212.44;;;8.07;nan
74794;BME280;63320;50.768;6.724;2024-02-14T02:28:59;100217.50;;;8.12;nan
74794;BME280;63320;50.768;6.724;2024-02-14T02:31:24;100218.59;;;8.06;nan
74794;BME280;63320;50.768;6.724;2024-02-14T02:33:50;100219.28;;;8.11;nan
74794;BME280;63320;50.768;6.724;2024-02-14T02:36:15;100209.66;;;8.12;nan
74794;BME280;63320;50.768;6.724;2024-02-14T02:38:41;100209.78;;;8.09;nan
74794;BME280;63320;50.768;6.724;2024-02-14T02:41:07;100217.63;;;8.09;nan
74794;BME280;63320;50.768;6.724;2024-02-14T02:43:33;100222.63;;;8.15;nan
74794;BME280;63320;50.768;6.724;2024-02-14T02:45:59;100220.13;;;8.12;nan
74794;BME280;63320;50.768;6.724;2024-02-14T02:48:24;100236.69;;;8.12;nan
74794;BME280;63320;50.768;6.724;2024-02-14T02:50:50;100238.53;;;8.10;nan
74794;BME280;63320;50.768;6.724;2024-02-14T02:53:16;100258.63;;;8.10;nan
74794;BME280;63320;50.768;6.724;2024-02-14T02:55:41;100257.78;;;8.09;nan
74794;BME280;63320;50.768;6.724;2024-02-14T02:58:08;100256.84;;;8.10;nan
74794;BME280;63320;50.768;6.724;2024-02-14T03:00:34;100254.00;;;8.16;nan
74794;BME280;63320;50.768;6.724;2024-02-14T03:02:59;100246.94;;;8.18;nan
74794;BME280;63320;50.768;6.724;2024-02-14T03:05:25;100253.81;;;8.21;nan
74794;BME280;63320;50.768;6.724;2024-02-14T03:07:50;100259.13;;;8.19;nan
74794;BME280;63320;50.768;6.724;2024-02-14T03:10:16;100260.72;;;8.23;nan
74794;BME280;63320;50.768;6.724;2024-02-14T03:12:42;100251.88;;;8.26;nan
74794;BME280;63320;50.768;6.724;2024-02-14T03:15:09;100257.97;;;8.26;nan
74794;BME280;63320;50.768;6.724;2024-02-14T03:17:35;100261.44;;;8.27;nan
74794;BME280;63320;50.768;6.724;2024-02-14T03:20:00;100254.50;;;8.26;nan
74794;BME280;63320;50.768;6.724;2024-02-14T03:22:26;100253.72;;;8.24;nan
74794;BME280;63320;50.768;6.724;2024-02-14T03:24:51;100253.72;;;8.24;nan
74794;BME280;63320;50.768;6.724;2024-02-14T03:27:16;100254.44;;;8.27;nan
74794;BME280;63320;50.768;6.724;2024-02-14T03:29:42;100259.56;;;8.30;nan
74794;BME280;63320;50.768;6.724;2024-02-14T03:32:08;100254.34;;;8.30;nan
74794;BME280;63320;50.768;6.724;2024-02-14T03:34:34;100259.25;;;8.40;nan
74794;BME280;63320;50.768;6.724;2024-02-14T03:37:00;100250.59;;;8.38;nan
74794;BME280;63320;50.768;6.724;2024-02-14T03:39:25;100255.00;;;8.36;nan
74794;BME280;63320;50.768;6.724;2024-02-14T03:41:50;100244.63;;;8.32;nan
74794;BME280;63320;50.768;6.724;2024-02-14T03:44:16;100250.78;;;8.31;nan
74794;BME280;63320;50.768;6.724;2024-02-14T03:46:41;100248.34;;;8.27;nan
74794;BME280;63320;50.768;6.724;2024-02-14T03:49:08;100253.66;;;8.25;nan
74794;BME280;63320;50.768;6.724;2024-02-14T03:51:33;100241.41;;;8.26;nan
74794;BME280;63320;50.768;6.724;2024-02-14T03:53:59;100248.47;;;8.24;nan
74794;BME280;63320;50.768;6.724;2024-02-14T03:56:24;100250.59;;;8.14;nan
74794;BME280;63320;50.768;6.724;2024-02-14T03:58:49;100248.84;;;8.13;nan
74794;BME280;63320;50.768;6.724;2024-02-14T04:01:15;100253.94;;;8.18;nan
74794;BME280;63320;50.768;6.724;2024-02-14T04:03:40;100254.16;;;8.12;nan
74794;BME280;63320;50.768;6.724;2024-02-14T04:06:07;100260.25;;;8.12;nan
74794;BME280;63320;50.768;6.724;2024-02-14T04:08:32;100264.47;;;8.16;nan
74794;BME280;63320;50.768;6.724;2024-02-14T04:10:58;100253.22;;;8.14;nan
74794;BME280;63320;50.768;6.724;2024-02-14T04:13:23;100258.31;;;8.17;nan
74794;BME280;63320;50.768;6.724;2024-02-14T04:15:49;100253.94;;;8.18;nan
74794;BME280;63320;50.768;6.724;2024-02-14T04:18:14;100254.69;;;8.21;nan
74794;BME280;63320;50.768;6.724;2024-02-14T04:20:39;100256.38;;;8.22;nan
74794;BME280;63320;50.768;6.724;2024-02-14T04:23:06;100251.09;;;8.24;nan
74794;BME280;63320;50.768;6.724;2024-02-14T04:25:32;100259.84;;;8.23;nan
74794;BME280;63320;50.768;6.724;2024-02-14T04:27:57;100266.75;;;8.25;nan
74794;BME280;63320;50.768;6.724;2024-02-14T04:30:23;100263.38;;;8.22;nan
74794;BME280;63320;50.768;6.724;2024-02-14T04:32:48;100269.47;;;8.22;nan
74794;BME280;63320;50.768;6.724;2024-02-14T04:35:14;100263.34;;;8.23;nan
74794;BME280;63320;50.768;6.724;2024-02-14T04:37:39;100257.19;;;8.24;nan
74794;BME280;63320;50.768;6.724;2024-02-14T04:40:07;100271.06;;;8.26;nan
74794;BME280;63320;50.768;6.724;2024-02-14T04:42:33;100274.69;;;8.24;nan
74794;BME280;63320;50.768;6.724;2024-02-14T04:44:58;100276.25;;;8.28;nan
74794;BME280;63320;50.768;6.724;2024-02-14T04:47:23;100270.84;;;8.32;nan
74794;BME280;63320;50.768;6.724;2024-02-14T04:49:49;100278.81;;;8.29;nan
74794;BME280;63320;50.768;6.724;2024-02-14T04:52:14;100274.31;;;8.33;nan
74794;BME280;63320;50.768;6.724;2024-02-14T04:54:40;100275.19;;;8.34;nan
74794;BME280;63320;50.768;6.724;2024-02-14T04:57:06;100265.66;;;8.31;nan
74794;BME280;63320;50.768;6.724;2024-02-14T04:59:32;100270.69;;;8.37;nan
74794;BME280;63320;50.768;6.724;2024-02-14T05:01:57;100259.34;;;8.37;nan
74794;BME280;63320;50.768;6.724;2024-02-14T05:04:22;100267.31;;;8.34;nan
74794;BME280;63320;50.768;6.724;2024-02-14T05:06:48;100279.50;;;8.35;nan
74794;BME280;63320;50.768;6.724;2024-02-14T05:09:13;100277.47;;;8.43;nan
74794;BME280;63320;50.768;6.724;2024-02-14T05:11:39;100278.53;;;8.39;nan
74794;BME280;63320;50.768;6.724;2024-02-14T05:14:05;100272.19;;;8.44;nan
74794;BME280;63320;50.768;6.724;2024-02-14T05:16:31;100290.56;;;8.43;nan
74794;BME280;63320;50.768;6.724;2024-02-14T05:18:56;100289.59;;;8.45;nan
74794;BME280;63320;50.768;6.724;2024-02-14T05:21:22;100287.00;;;8.45;nan
74794;BME280;63320;50.768;6.724;2024-02-14T05:23:47;100282.69;;;8.43;nan
74794;BME280;63320;50.768;6.724;2024-02-14T05:26:12;100280.91;;;8.45;nan
74794;BME280;63320;50.768;6.724;2024-02-14T05:28:38;100294.78;;;8.47;nan
74794;BME280;63320;50.768;6.724;2024-02-14T05:31:05;100296.47;;;8.48;nan
74794;BME280;63320;50.768;6.724;2024-02-14T05:33:30;100289.44;;;8.50;nan
74794;BME280;63320;50.768;6.724;2024-02-14T05:35:55;100297.28;;;8.50;nan
74794;BME280;63320;50.768;6.724;2024-02-14T05:38:21;100295.69;;;8.46;nan
74794;BME280;63320;50.768;6.724;2024-02-14T05:40:46;100301.69;;;8.49;nan
74794;BME280;63320;50.768;6.724;2024-02-14T05:43:12;100313.13;;;8.47;nan
74794;BME280;63320;50.768;6.724;2024-02-14T05:45:37;100306.09;;;8.47;nan
74794;BME280;63320;50.768;6.724;2024-02-14T05:48:05;100310.41;;;8.50;nan
74794;BME280;63320;50.768;6.724;2024-02-14T05:50:30;100306.84;;;8.51;nan
74794;BME280;63320;50.768;6.724;2024-02-14T05:52:56;100321.72;;;8.50;nan
74794;BME280;63320;50.768;6.724;2024-02-14T05:55:21;100329.69;;;8.47;nan
74794;BME280;63320;50.768;6.724;2024-02-14T05:57:47;100310.41;;;8.50;nan
74794;BME280;63320;50.768;6.724;2024-02-14T06:00:12;100312.34;;;8.45;nan
74794;BME280;63320;50.768;6.724;2024-02-14T06:02:38;100299.25;;;8.45;nan
74794;BME280;63320;50.768;6.724;2024-02-14T06:05:06;100293.34;;;8.38;nan
74794;BME280;63320;50.768;6.724;2024-02-14T06:07:31;100301.19;;;8.40;nan
74794;BME280;63320;50.768;6.724;2024-02-14T06:09:57;100297.00;;;8.34;nan
74794;BME280;63320;50.768;6.724;2024-02-14T06:12:22;100297.88;;;8.33;nan
74794;BME280;63320;50.768;6.724;2024-02-14T06:14:48;100304.09;;;8.30;nan
74794;BME280;63320;50.768;6.724;2024-02-14T06:17:14;100311.19;;;8.28;nan
74794;BME280;63320;50.768;6.724;2024-02-14T06:19:39;100311.28;;;8.25;nan
74794;BME280;63320;50.768;6.724;2024-02-14T06:22:06;100315.78;;;8.22;nan
74794;BME280;63320;50.768;6.724;2024-02-14T06:24:31;100307.06;;;8.21;nan
74794;BME280;63320;50.768;6.724;2024-02-14T06:26:57;100313.22;;;8.20;nan
74794;BME280;63320;50.768;6.724;2024-02-14T06:29:22;100310.53;;;8.22;nan
74794;BME280;63320;50.768;6.724;2024-02-14T06:31:47;100314.00;;;8.22;nan
74794;BME280;63320;50.768;6.724;2024-02-14T06:34:13;100317.66;;;8.18;nan
74794;BME280;63320;50.768;6.724;2024-02-14T06:36:38;100304.56;;;8.18;nan
74794;BME280;63320;50.768;6.724;2024-02-14T06:39:06;100318.34;;;8.23;nan
74794;BME280;63320;50.768;6.724;2024-02-14T06:41:32;100316.75;;;8.19;nan
74794;BME280;63320;50.768;6.724;2024-02-14T06:43:57;100321.94;;;8.21;nan
74794;BME280;63320;50.768;6.724;2024-02-14T06:46:23;100323.69;;;8.20;nan
74794;BME280;63320;50.768;6.724;2024-02-14T06:48:48;100326.22;;;8.23;nan
74794;BME280;63320;50.768;6.724;2024-02-14T06:51:13;100320.16;;;8.21;nan
74794;BME280;63320;50.768;6.724;2024-02-14T06:53:39;100328.78;;;8.25;nan
74794;BME280;63320;50.768;6.724;2024-02-14T06:56:06;100330.53;;;8.24;nan
74794;BME280;63320;50.768;6.724;2024-02-14T06:58:32;100336.78;;;8.20;nan
74794;BME280;63320;50.768;6.724;2024-02-14T07:00:57;100339.34;;;8.22;nan
74794;BME280;63320;50.768;6.724;2024-02-14T07:03:22;100347.19;;;8.22;nan
74794;BME280;63320;50.768;6.724;2024-02-14T07:05:48;100348.19;;;8.19;nan
74794;BME280;63320;50.768;6.724;2024-02-14T07:08:13;100341.13;;;8.21;nan
74794;BME280;63320;50.768;6.724;2024-02-14T07:10:39;100346.06;;;8.54;nan
74794;BME280;63320;50.768;6.724;2024-02-14T07:13:05;100344.09;;;8.36;nan
74794;BME280;63320;50.768;6.724;2024-02-14T07:15:31;100341.56;;;8.32;nan
74794;BME280;63320;50.768;6.724;2024-02-14T07:17:56;100337.13;;;8.36;nan
74794;BME280;63320;50.768;6.724;2024-02-14T07:20:22;100340.47;;;8.40;nan
74794;BME280;63320;50.768;6.724;2024-02-14T07:22:47;100336.84;;;8.44;nan
74794;BME280;63320;50.768;6.724;2024-02-14T07:25:13;100335.84;;;8.46;nan
74794;BME280;63320;50.768;6.724;2024-02-14T07:27:39;100338.47;;;8.46;nan
74794;BME280;63320;50.768;6.724;2024-02-14T07:30:07;100342.75;;;8.49;nan
74794;BME280;63320;50.768;6.724;2024-02-14T07:32:33;100348.78;;;8.51;nan
74794;BME280;63320;50.768;6.724;2024-02-14T07:34:58;100343.44;;;8.54;nan
74794;BME280;63320;50.768;6.724;2024-02-14T07:37:23;100354.72;;;8.56;nan
74794;BME280;63320;50.768;6.724;2024-02-14T07:39:49;100350.25;;;8.58;nan
74794;BME280;63320;50.768;6.724;2024-02-14T07:42:14;100349.38;;;8.59;nan
74794;BME280;63320;50.768;6.724;2024-02-14T07:44:40;100362.22;;;8.65;nan
74794;BME280;63320;50.768;6.724;2024-02-14T07:47:06;100369.19;;;8.66;nan
74794;BME280;63320;50.768;6.724;2024-02-14T07:49:32;100376.94;;;8.69;nan
74794;BME280;63320;50.768;6.724;2024-02-14T07:51:57;100386.25;;;8.76;nan
74794;BME280;63320;50.768;6.724;2024-02-14T07:54:23;100385.53;;;8.73;nan
74794;BME280;63320;50.768;6.724;2024-02-14T07:56:48;100394.97;;;8.77;nan
74794;BME280;63320;50.768;6.724;2024-02-14T07:59:13;100387.00;;;8.80;nan
74794;BME280;63320;50.768;6.724;2024-02-14T08:01:39;100393.78;;;8.86;nan
74794;BME280;63320;50.768;6.724;2024-02-14T08:04:05;100388.31;;;8.92;nan
74794;BME280;63320;50.768;6.724;2024-02-14T08:06:31;100383.66;;;8.98;nan
74794;BME280;63320;50.768;6.724;2024-02-14T08:08:56;100374.59;;;9.07;nan
74794;BME280;63320;50.768;6.724;2024-02-14T08:11:22;100367.53;;;9.09;nan
74794;BME280;63320;50.768;6.724;2024-02-14T08:13:47;100369.06;;;9.15;nan
74794;BME280;63320;50.768;6.724;2024-02-14T08:16:13;100360.94;;;9.21;nan
74794;BME280;63320;50.768;6.724;2024-02-14T08:18:38;100366.59;;;9.32;nan
74794;BME280;63320;50.768;6.724;2024-02-14T08:21:06;100370.06;;;9.32;nan
74794;BME280;63320;50.768;6.724;2024-02-14T08:23:31;100365.66;;;9.33;nan
74794;BME280;63320;50.768;6.724;2024-02-14T08:25:57;100371.78;;;9.33;nan
74794;BME280;63320;50.768;6.724;2024-02-14T08:28:22;100369.88;;;9.37;nan
74794;BME280;63320;50.768;6.724;2024-02-14T08:30:48;100382.09;;;9.38;nan
74794;BME280;63320;50.768;6.724;2024-02-14T08:33:13;100381.03;;;9.42;nan
74794;BME280;63320;50.768;6.724;2024-02-14T08:35:39;100385.34;;;9.45;nan
74794;BME280;63320;50.768;6.724;2024-02-14T08:38:05;100386.91;;;9.49;nan
74794;BME280;63320;50.768;6.724;2024-02-14T08:40:31;100387.44;;;9.57;nan
74794;BME280;63320;50.768;6.724;2024-02-14T08:42:56;100379.44;;;9.60;nan
74794;BME280;63320;50.768;6.724;2024-02-14T08:45:21;100379.19;;;9.66;nan
74794;BME280;63320;50.768;6.724;2024-02-14T08:47:47;100393.63;;;9.76;nan
74794;BME280;63320;50.768;6.724;2024-02-14T08:50:12;100379.97;;;9.89;nan
74794;BME280;63320;50.768;6.724;2024-02-14T08:52:38;100385.22;;;9.89;nan
74794;BME280;63320;50.768;6.724;2024-02-14T08:55:05;100389.16;;;9.99;nan
74794;BME280;63320;50.768;6.724;2024-02-14T08:57:31;100396.28;;;9.97;nan
74794;BME280;63320;50.768;6.724;2024-02-14T08:59:56;100390.81;;;10.01;nan
74794;BME280;63320;50.768;6.724;2024-02-14T09:02:21;100389.97;;;10.01;nan
74794;BME280;63320;50.768;6.724;2024-02-14T09:04:47;100382.41;;;9.93;nan
74794;BME280;63320;50.768;6.724;2024-02-14T09:07:12;100401.25;;;10.03;nan
74794;BME280;63320;50.768;6.724;2024-02-14T09:09:37;100391.28;;;10.11;nan
74794;BME280;63320;50.768;6.724;2024-02-14T09:12:05;100392.72;;;10.18;nan
74794;BME280;63320;50.768;6.724;2024-02-14T09:14:31;100402.84;;;10.27;nan
74794;BME280;63320;50.768;6.724;2024-02-14T09:16:56;100400.97;;;10.31;nan
74794;BME280;63320;50.768;6.724;2024-02-14T09:19:22;100389.19;;;10.40;nan
74794;BME280;63320;50.768;6.724;2024-02-14T09:21:48;100405.00;;;10.38;nan
74794;BME280;63320;50.768;6.724;2024-02-14T09:24:13;100392.47;;;10.45;nan
74794;BME280;63320;50.768;6.724;2024-02-14T09:26:38;100391.81;;;10.40;nan
74794;BME280;63320;50.768;6.724;2024-02-14T09:29:05;100391.94;;;10.36;nan
74794;BME280;63320;50.768;6.724;2024-02-14T09:31:31;100398.81;;;10.39;nan
74794;BME280;63320;50.768;6.724;2024-02-14T09:33:56;100410.13;;;10.41;nan
74794;BME280;63320;50.768;6.724;2024-02-14T09:36:22;100405.59;;;10.45;nan
74794;BME280;63320;50.768;6.724;2024-02-14T09:38:47;100409.88;;;10.47;nan
74794;BME280;63320;50.768;6.724;2024-02-14T09:41:15;100418.91;;;10.60;nan
74794;BME280;63320;50.768;6.724;2024-02-14T09:43:47;100406.91;;;10.55;nan
74794;BME280;63320;50.768;6.724;2024-02-14T09:46:14;100416.94;;;10.66;nan
74794;BME280;63320;50.768;6.724;2024-02-14T09:48:40;100418.13;;;10.58;nan
74794;BME280;63320;50.768;6.724;2024-02-14T09:51:09;100425.38;;;10.72;nan
74794;BME280;63320;50.768;6.724;2024-02-14T09:53:34;100421.47;;;10.62;nan
74794;BME280;63320;50.768;6.724;2024-02-14T09:56:01;100431.13;;;10.61;nan
74794;BME280;63320;50.768;6.724;2024-02-14T09:58:27;100431.34;;;10.57;nan
74794;BME280;63320;50.768;6.724;2024-02-14T10:00:53;100436.41;;;10.61;nan
74794;BME280;63320;50.768;6.724;2024-02-14T10:03:19;100436.31;;;10.63;nan
74794;BME280;63320;50.768;6.724;2024-02-14T10:05:45;100435.66;;;10.58;nan
74794;BME280;63320;50.768;6.724;2024-02-14T10:08:11;100434.75;;;10.59;nan
74794;BME280;63320;50.768;6.724;2024-02-14T10:10:37;100431.34;;;10.57;nan
74794;BME280;63320;50.768;6.724;2024-02-14T10:13:04;100444.59;;;10.54;nan
74794;BME280;63320;50.768;6.724;2024-02-14T10:15:29;100451.41;;;10.59;nan
74794;BME280;63320;50.768;6.724;2024-02-14T10:17:54;100444.75;;;10.51;nan
74794;BME280;63320;50.768;6.724;2024-02-14T10:20:21;100440.28;;;10.53;nan
74794;BME280;63320;50.768;6.724;2024-02-14T10:22:47;100443.72;;;10.55;nan
74794;BME280;63320;50.768;6.724;2024-02-14T10:25:12;100453.44;;;10.53;nan
74794;BME280;63320;50.768;6.724;2024-02-14T10:27:38;100440.25;;;10.73;nan
74794;BME280;63320;50.768;6.724;2024-02-14T10:30:05;100450.13;;;10.68;nan
74794;BME280;63320;50.768;6.724;2024-02-14T10:32:31;100455.91;;;10.76;nan
74794;BME280;63320;50.768;6.724;2024-02-14T10:34:57;100446.31;;;10.75;nan
74794;BME280;63320;50.768;6.724;2024-02-14T10:37:25;100453.47;;;10.72;nan
74794;BME280;63320;50.768;6.724;2024-02-14T10:39:51;100447.06;;;10.77;nan
74794;BME280;63320;50.768;6.724;2024-02-14T10:42:18;100443.03;;;10.89;nan
74794;BME280;63320;50.768;6.724;2024-02-14T10:44:44;100445.44;;;10.94;nan
74794;BME280;63320;50.768;6.724;2024-02-14T10:47:10;100450.00;;;10.90;nan
74794;BME280;63320;50.768;6.724;2024-02-14T10:49:39;100439.69;;;11.04;nan
74794;BME280;63320;50.768;6.724;2024-02-14T10:52:07;100447.00;;;10.98;nan
74794;BME280;63320;50.768;6.724;2024-02-14T10:54:35;100448.03;;;10.95;nan
74794;BME280;63320;50.768;6.724;2024-02-14T10:57:05;100438.19;;;10.99;nan
74794;BME280;63320;50.768;6.724;2024-02-14T10:59:31;100441.97;;;11.12;nan
74794;BME280;63320;50.768;6.724;2024-02-14T11:01:57;100429.16;;;11.23;nan
74794;BME280;63320;50.768;6.724;2024-02-14T11:04:22;100438.91;;;11.21;nan
74794;BME280;63320;50.768;6.724;2024-02-14T11:06:48;100437.84;;;11.06;nan
74794;BME280;63320;50.768;6.724;2024-02-14T11:09:14;100432.84;;;11.19;nan
74794;BME280;63320;50.768;6.724;2024-02-14T11:11:41;100428.84;;;11.29;nan
74794;BME280;63320;50.768;6.724;2024-02-14T11:14:07;100437.25;;;11.37;nan
74794;BME280;63320;50.768;6.724;2024-02-14T11:16:32;100426.50;;;11.23;nan
74794;BME280;63320;50.768;6.724;2024-02-14T11:19:07;100435.66;;;11.16;nan
74794;BME280;63320;50.768;6.724;2024-02-14T11:21:35;100431.78;;;11.23;nan
74794;BME280;63320;50.768;6.724;2024-02-14T11:24:04;100452.56;;;11.10;nan
74794;BME280;63320;50.768;6.724;2024-02-14T11:26:38;100444.53;;;11.13;nan
74794;BME280;63320;50.768;6.724;2024-02-14T11:29:05;100442.06;;;11.10;nan
74794;BME280;63320;50.768;6.724;2024-02-14T11:31:33;100436.91;;;11.07;nan
74794;BME280;63320;50.768;6.724;2024-02-14T11:34:03;100435.22;;;11.06;nan
74794;BME280;63320;50.768;6.724;2024-02-14T11:36:28;100430.47;;;11.14;nan
74794;BME280;63320;50.768;6.724;2024-02-14T11:38:53;100432.50;;;11.08;nan
74794;BME280;63320;50.768;6.724;2024-02-14T11:41:20;100435.66;;;11.16;nan
74794;BME280;63320;50.768;6.724;2024-02-14T11:43:50;100435.47;;;11.19;nan
74794;BME280;63320;50.768;6.724;2024-02-14T11:46:17;100434.41;;;11.23;nan
74794;BME280;63320;50.768;6.724;2024-02-14T11:48:43;100437.47;;;11.14;nan
74794;BME280;63320;50.768;6.724;2024-02-14T11:51:09;100433.88;;;11.17;nan
74794;BME280;63320;50.768;6.724;2024-02-14T11:53:34;100430.09;;;11.22;nan
74794;BME280;63320;50.768;6.724;2024-02-14T11:56:00;100424.31;;;11.14;nan
74794;BME280;63320;50.768;6.724;2024-02-14T11:58:25;100436.63;;;11.13;nan
74794;BME280;63320;50.768;6.724;2024-02-14T12:00:51;100434.41;;;11.23;nan
74794;BME280;63320;50.768;6.724;2024-02-14T12:03:18;100423.34;;;11.17;nan
74794;BME280;63320;50.768;6.724;2024-02-14T12:05:46;100424.06;;;11.20;nan
74794;BME280;63320;50.768;6.724;2024-02-14T12:08:12;100419.06;;;11.14;nan
74794;BME280;63320;50.768;6.724;2024-02-14T12:10:37;100425.03;;;11.18;nan
74794;BME280;63320;50.768;6.724;2024-02-14T12:13:07;100418.28;;;11.31;nan
74794;BME280;63320;50.768;6.724;2024-02-14T12:15:37;100411.31;;;11.30;nan
74794;BME280;63320;50.768;6.724;2024-02-14T12:18:03;100416.50;;;11.31;nan
74794;BME280;63320;50.768;6.724;2024-02-14T12:20:30;100417.41;;;11.30;nan
74794;BME280;63320;50.768;6.724;2024-02-14T12:22:55;100419.47;;;11.24;nan
74794;BME280;63320;50.768;6.724;2024-02-14T12:25:21;100414.38;;;11.21;nan
74794;BME280;63320;50.768;6.724;2024-02-14T12:27:50;100419.88;;;11.33;nan
74794;BME280;63320;50.768;6.724;2024-02-14T12:30:17;100421.75;;;11.31;nan
74794;BME280;63320;50.768;6.724;2024-02-14T12:32:42;100410.06;;;11.37;nan
74794;BME280;63320;50.768;6.724;2024-02-14T12:35:08;100410.41;;;11.48;nan
74794;BME280;63320;50.768;6.724;2024-02-14T12:37:35;100406.56;;;11.55;nan
74794;BME280;63320;50.768;6.724;2024-02-14T12:40:00;100415.44;;;11.53;nan
74794;BME280;63320;50.768;6.724;2024-02-14T12:42:25;100417.13;;;11.54;nan
74794;BME280;63320;50.768;6.724;2024-02-14T12:44:51;100407.53;;;11.53;nan
74794;BME280;63320;50.768;6.724;2024-02-14T12:47:17;100411.66;;;11.58;nan
74794;BME280;63320;50.768;6.724;2024-02-14T12:49:42;100409.72;;;11.62;nan
74794;BME280;63320;50.768;6.724;2024-02-14T12:52:08;100417.53;;;11.63;nan
74794;BME280;63320;50.768;6.724;2024-02-14T12:54:35;100410.97;;;11.72;nan
74794;BME280;63320;50.768;6.724;2024-02-14T12:57:00;100412.06;;;11.68;nan
74794;BME280;63320;50.768;6.724;2024-02-14T12:59:25;100394.00;;;11.60;nan
74794;BME280;63320;50.768;6.724;2024-02-14T13:01:51;100396.38;;;11.48;nan
74794;BME280;63320;50.768;6.724;2024-02-14T13:04:16;100388.88;;;11.57;nan
74794;BME280;63320;50.768;6.724;2024-02-14T13:06:42;100392.44;;;11.56;nan
74794;BME280;63320;50.768;6.724;2024-02-14T13:09:07;100393.59;;;11.51;nan